Time;durP1;ratioP1;P1;durP2;ratioP2;P2;SDS_P1;SDS_P2;PMS_P1;PMS_P2;Temp;Humidity;BMP_temperature;BMP_pressure;BME280_temperature;BME280_humidity;BME280_pressure;Samples;Min_cycle;Max_cycle;Signal;HPM_P1;HPM_P2
2024/03/22 00:01:47;;;;;;;20.80;10.02;;;;;;;;;;5001514;28;1429386;-75
2024/03/22 00:04:14;;;;;;;21.85;11.35;;;;;;;;;;5033979;28;20609;-72
2024/03/22 00:06:44;;;;;;;23.50;11.20;;;;;;;;;;5052521;28;20035;-72
2024/03/22 00:09:11;;;;;;;22.27;11.05;;;;;;;;;;5052113;28;20055;-72
2024/03/22 00:11:37;;;;;;;20.38;11.05;;;;;;;;;;5052393;28;20033;-74
2024/03/22 00:14:03;;;;;;;18.85;10.55;;;;;;;;;;5034378;28;20029;-71
2024/03/22 00:16:29;;;;;;;20.60;11.93;;;;;;;;;;5051559;28;20032;-72
2024/03/22 00:18:55;;;;;;;22.30;10.68;;;;;;;;;;5052736;28;20029;-72
2024/03/22 00:21:22;;;;;;;19.13;10.75;;;;;;;;;;5052072;28;20560;-73
2024/03/22 00:23:48;;;;;;;18.65;11.85;;;;;;;;;;5052190;28;20072;-72
2024/03/22 00:26:15;;;;;;;21.27;10.95;;;;;;;;;;5052251;28;20052;-72
2024/03/22 00:28:41;;;;;;;21.73;11.18;;;;;;;;;;5041810;28;20399;-71
2024/03/22 00:31:09;;;;;;;21.45;11.32;;;;;;;;;;5072322;28;20039;-69
2024/03/22 00:33:34;;;;;;;23.60;11.85;;;;;;;;;;5072542;28;20047;-72
2024/03/22 00:36:00;;;;;;;20.85;11.20;;;;;;;;;;5053912;28;20491;-70
2024/03/22 00:38:26;;;;;;;21.42;12.30;;;;;;;;;;5054326;28;20028;-72
2024/03/22 00:40:51;;;;;;;24.13;12.13;;;;;;;;;;5054313;28;20032;-73
2024/03/22 00:43:17;;;;;;;22.70;11.57;;;;;;;;;;5072247;28;20535;-71
2024/03/22 00:45:43;;;;;;;23.27;11.63;;;;;;;;;;5054184;28;20460;-72
2024/03/22 00:48:09;;;;;;;23.95;12.05;;;;;;;;;;5073969;28;20043;-72
2024/03/22 00:50:34;;;;;;;21.58;12.23;;;;;;;;;;5055948;28;20036;-72
2024/03/22 00:53:02;;;;;;;22.35;10.95;;;;;;;;;;5053813;28;20043;-73
2024/03/22 00:55:28;;;;;;;24.88;12.20;;;;;;;;;;5053426;28;20491;-72
2024/03/22 00:57:54;;;;;;;23.83;12.43;;;;;;;;;;5053285;28;20028;-73
2024/03/22 01:00:20;;;;;;;24.33;12.38;;;;;;;;;;5053421;28;20020;-73
2024/03/22 01:02:47;;;;;;;22.52;12.27;;;;;;;;;;5053652;28;20427;-71
2024/03/22 01:05:14;;;;;;;22.98;11.63;;;;;;;;;;5071595;28;20107;-73
2024/03/22 01:07:40;;;;;;;24.17;11.95;;;;;;;;;;5036866;28;20033;-72
2024/03/22 01:10:07;;;;;;;24.50;12.75;;;;;;;;;;5071139;28;20030;-71
2024/03/22 01:12:33;;;;;;;21.45;11.50;;;;;;;;;;5053009;28;20032;-73
2024/03/22 01:14:58;;;;;;;23.80;12.60;;;;;;;;;;5053091;28;20039;-72
2024/03/22 01:17:24;;;;;;;22.77;12.00;;;;;;;;;;5071273;28;20086;-71
2024/03/22 01:19:50;;;;;;;26.98;13.20;;;;;;;;;;5071209;28;20052;-71
2024/03/22 01:22:18;;;;;;;23.08;12.90;;;;;;;;;;5071286;28;20407;-73
2024/03/22 01:24:46;;;;;;;21.20;11.52;;;;;;;;;;5071022;28;20492;-71
2024/03/22 01:27:12;;;;;;;25.35;11.48;;;;;;;;;;5071085;28;20032;-70
2024/03/22 01:29:37;;;;;;;24.25;11.80;;;;;;;;;;5071312;28;20032;-72
2024/03/22 01:32:03;;;;;;;28.80;12.73;;;;;;;;;;5053329;28;20408;-70
2024/03/22 01:34:29;;;;;;;25.02;11.73;;;;;;;;;;5070620;28;20100;-72
2024/03/22 01:36:55;;;;;;;23.83;12.40;;;;;;;;;;5052795;28;20036;-71
2024/03/22 01:39:21;;;;;;;23.13;11.63;;;;;;;;;;5053170;28;20043;-72
2024/03/22 01:41:51;;;;;;;20.30;12.05;;;;;;;;;;5052952;28;20468;-72
2024/03/22 01:44:17;;;;;;;22.30;10.85;;;;;;;;;;5070785;28;20074;-72
2024/03/22 01:46:44;;;;;;;21.55;11.77;;;;;;;;;;5053117;28;20016;-71
2024/03/22 01:49:15;;;;;;;21.67;11.00;;;;;;;;;;5070660;28;20479;-71
2024/03/22 01:51:40;;;;;;;23.50;11.60;;;;;;;;;;5053774;28;20036;-73
2024/03/22 01:54:09;;;;;;;25.05;11.00;;;;;;;;;;5053572;28;20040;-72
2024/03/22 01:56:38;;;;;;;18.98;11.07;;;;;;;;;;5070547;28;20487;-72
2024/03/22 01:59:07;;;;;;;21.65;11.10;;;;;;;;;;5071026;28;20491;-72
2024/03/22 02:01:34;;;;;;;19.02;10.90;;;;;;;;;;5052708;28;20116;-73
2024/03/22 02:04:00;;;;;;;22.60;11.77;;;;;;;;;;5070614;28;20484;-71
2024/03/22 02:06:26;;;;;;;20.40;10.35;;;;;;;;;;5070429;28;20103;-71
2024/03/22 02:08:51;;;;;;;20.55;11.27;;;;;;;;;;5070946;28;20024;-71
2024/03/22 02:11:17;;;;;;;21.15;11.13;;;;;;;;;;5052331;28;20024;-72
2024/03/22 02:13:43;;;;;;;19.55;10.98;;;;;;;;;;5052452;28;20388;-72
2024/03/22 02:16:09;;;;;;;21.05;10.63;;;;;;;;;;5052371;28;20444;-71
2024/03/22 02:18:34;;;;;;;19.55;10.40;;;;;;;;;;5052586;28;20035;-71
2024/03/22 02:21:00;;;;;;;22.45;11.23;;;;;;;;;;5052962;28;20039;-72
2024/03/22 02:23:36;;;;;;;18.33;10.10;;;;;;;;;;5070637;28;20083;-72
2024/03/22 02:26:03;;;;;;;18.70;10.70;;;;;;;;;;5053173;28;20024;-71
2024/03/22 02:28:28;;;;;;;19.95;11.00;;;;;;;;;;5036473;28;20028;-73
2024/03/22 02:30:55;;;;;;;22.55;11.48;;;;;;;;;;5053802;28;20078;-73
2024/03/22 02:33:21;;;;;;;21.42;10.68;;;;;;;;;;5053799;28;20612;-73
2024/03/22 02:35:47;;;;;;;21.92;10.70;;;;;;;;;;5053748;28;20029;-72
2024/03/22 02:38:13;;;;;;;19.83;11.05;;;;;;;;;;5054744;28;20032;-72
2024/03/22 02:40:39;;;;;;;17.15;9.85;;;;;;;;;;5076120;28;20020;-73
2024/03/22 02:43:04;;;;;;;23.33;10.80;;;;;;;;;;5057868;28;20392;-73
2024/03/22 02:45:31;;;;;;;19.10;10.07;;;;;;;;;;5058482;28;20036;-72
2024/03/22 02:47:57;;;;;;;20.50;10.35;;;;;;;;;;5059024;28;20083;-74
2024/03/22 02:50:23;;;;;;;18.75;10.43;;;;;;;;;;5058288;28;20479;-73
2024/03/22 02:52:49;;;;;;;22.00;11.70;;;;;;;;;;5059031;28;20046;-72
2024/03/22 02:55:15;;;;;;;19.92;10.85;;;;;;;;;;5059508;28;20114;-72
2024/03/22 02:57:42;;;;;;;22.58;11.73;;;;;;;;;;5077061;28;20024;-73
2024/03/22 03:00:08;;;;;;;22.63;11.20;;;;;;;;;;5060945;28;20714;-72
2024/03/22 03:02:34;;;;;;;23.60;12.20;;;;;;;;;;5062577;28;20028;-71
2024/03/22 03:05:00;;;;;;;20.40;10.68;;;;;;;;;;5079951;28;20063;-73
2024/03/22 03:07:27;;;;;;;24.52;11.02;;;;;;;;;;5060440;28;20052;-71
2024/03/22 03:09:53;;;;;;;22.27;11.30;;;;;;;;;;5075286;28;20021;-71
2024/03/22 03:12:18;;;;;;;22.63;11.88;;;;;;;;;;5055836;28;20108;-72
2024/03/22 03:14:44;;;;;;;20.27;10.75;;;;;;;;;;5055393;28;20593;-72
2024/03/22 03:17:10;;;;;;;22.90;11.60;;;;;;;;;;5055817;28;20024;-72
2024/03/22 03:19:36;;;;;;;25.40;12.93;;;;;;;;;;5055462;28;20035;-71
2024/03/22 03:22:02;;;;;;;19.00;11.00;;;;;;;;;;5055851;28;20028;-72
2024/03/22 03:24:27;;;;;;;21.58;10.98;;;;;;;;;;5073664;28;20092;-72
2024/03/22 03:26:53;;;;;;;23.50;11.32;;;;;;;;;;5055829;28;20052;-72
2024/03/22 03:29:19;;;;;;;24.17;11.52;;;;;;;;;;5072809;28;20100;-70
2024/03/22 03:31:45;;;;;;;19.92;11.23;;;;;;;;;;5074872;28;20020;-71
2024/03/22 03:34:10;;;;;;;21.25;11.13;;;;;;;;;;5057239;28;20031;-70
2024/03/22 03:36:37;;;;;;;26.60;12.65;;;;;;;;;;5060181;28;20020;-71
2024/03/22 03:39:04;;;;;;;22.90;12.20;;;;;;;;;;5078939;28;20028;-71
2024/03/22 03:41:29;;;;;;;25.35;12.20;;;;;;;;;;5060134;28;20055;-73
2024/03/22 03:43:55;;;;;;;23.58;11.63;;;;;;;;;;5055463;28;20388;-72
2024/03/22 03:46:21;;;;;;;22.50;11.45;;;;;;;;;;5054799;28;20829;-72
2024/03/22 03:48:46;;;;;;;22.00;11.82;;;;;;;;;;5055177;28;20024;-74
2024/03/22 03:51:12;;;;;;;20.83;11.65;;;;;;;;;;5071651;28;20024;-72
2024/03/22 03:53:38;;;;;;;22.83;12.40;;;;;;;;;;5072454;28;20028;-72
2024/03/22 03:56:03;;;;;;;24.23;12.23;;;;;;;;;;5054764;28;20021;-72
2024/03/22 03:58:29;;;;;;;24.27;12.13;;;;;;;;;;5072763;28;20031;-72
2024/03/22 04:00:55;;;;;;;25.63;12.98;;;;;;;;;;5054337;28;20518;-72
2024/03/22 04:03:20;;;;;;;25.02;12.48;;;;;;;;;;5054686;28;20028;-70
2024/03/22 04:05:46;;;;;;;25.23;12.93;;;;;;;;;;5054826;28;20024;-72
2024/03/22 04:08:12;;;;;;;24.27;11.55;;;;;;;;;;5054749;28;20086;-72
2024/03/22 04:10:37;;;;;;;23.13;12.70;;;;;;;;;;5054679;28;20032;-72
2024/03/22 04:13:04;;;;;;;31.90;13.25;;;;;;;;;;5072638;28;20023;-71
2024/03/22 04:15:34;;;;;;;27.80;13.07;;;;;;;;;;5054748;28;20171;-72
2024/03/22 04:18:00;;;;;;;22.95;12.93;;;;;;;;;;5054912;28;20415;-73
2024/03/22 04:20:25;;;;;;;24.45;12.02;;;;;;;;;;5054234;28;20031;-72
2024/03/22 04:22:52;;;;;;;25.90;12.93;;;;;;;;;;5055319;28;20105;-72
2024/03/22 04:25:18;;;;;;;27.63;12.85;;;;;;;;;;5055283;28;20029;-72
2024/03/22 04:27:43;;;;;;;22.92;12.70;;;;;;;;;;5073399;28;20059;-72
2024/03/22 04:30:10;;;;;;;26.98;12.95;;;;;;;;;;5055516;28;20044;-73
2024/03/22 04:32:35;;;;;;;22.70;12.85;;;;;;;;;;5054603;28;20063;-72
2024/03/22 04:35:03;;;;;;;26.67;13.55;;;;;;;;;;5054036;28;20027;-72
2024/03/22 04:37:28;;;;;;;26.88;13.75;;;;;;;;;;5053816;28;20055;-72
2024/03/22 04:39:54;;;;;;;17.83;10.27;;;;;;;;;;5054152;28;20042;-73
2024/03/22 04:42:20;;;;;;;23.15;12.43;;;;;;;;;;5071905;28;20031;-73
2024/03/22 04:44:45;;;;;;;20.10;12.30;;;;;;;;;;5053296;28;20055;-73
2024/03/22 04:47:11;;;;;;;20.95;10.27;;;;;;;;;;5053633;28;20028;-73
2024/03/22 04:49:37;;;;;;;16.77;9.85;;;;;;;;;;5053250;28;20479;-71
2024/03/22 04:52:02;;;;;;;20.83;9.80;;;;;;;;;;5071963;28;20028;-72
2024/03/22 04:54:28;;;;;;;18.55;9.63;;;;;;;;;;5071737;28;20028;-73
2024/03/22 04:56:54;;;;;;;17.30;9.63;;;;;;;;;;5071704;28;20019;-72
2024/03/22 04:59:19;;;;;;;18.83;9.85;;;;;;;;;;5053702;28;20071;-73
2024/03/22 05:01:45;;;;;;;18.63;9.57;;;;;;;;;;5070705;28;20480;-73
2024/03/22 05:04:10;;;;;;;17.58;10.35;;;;;;;;;;5053436;28;20197;-72
2024/03/22 05:06:36;;;;;;;18.13;8.18;;;;;;;;;;5053359;28;20043;-73
2024/03/22 05:09:03;;;;;;;18.27;8.10;;;;;;;;;;5052767;28;20415;-71
2024/03/22 05:11:29;;;;;;;17.90;8.77;;;;;;;;;;5052907;28;20075;-73
2024/03/22 05:13:54;;;;;;;18.45;8.90;;;;;;;;;;5070749;28;20020;-73
2024/03/22 05:16:20;;;;;;;17.13;9.00;;;;;;;;;;5052804;28;20016;-72
2024/03/22 05:18:47;;;;;;;16.88;8.35;;;;;;;;;;5052692;28;20123;-72
2024/03/22 05:21:12;;;;;;;17.20;8.95;;;;;;;;;;5052768;28;20480;-73
2024/03/22 05:23:38;;;;;;;15.05;8.40;;;;;;;;;;5052491;28;20024;-72
2024/03/22 05:26:04;;;;;;;17.38;8.80;;;;;;;;;;5052896;28;20028;-71
2024/03/22 05:28:30;;;;;;;19.85;9.10;;;;;;;;;;5052863;28;20028;-73
2024/03/22 05:30:56;;;;;;;15.80;8.77;;;;;;;;;;5069992;28;20126;-71
2024/03/22 05:33:21;;;;;;;13.27;8.55;;;;;;;;;;5052485;28;20119;-71
2024/03/22 05:35:47;;;;;;;14.23;8.32;;;;;;;;;;5052425;28;20067;-72
2024/03/22 05:38:13;;;;;;;16.63;8.20;;;;;;;;;;5052728;28;20058;-71
2024/03/22 05:40:38;;;;;;;14.95;8.65;;;;;;;;;;5052619;28;20068;-73
2024/03/22 05:43:04;;;;;;;15.50;7.75;;;;;;;;;;5070923;28;20036;-73
2024/03/22 05:45:30;;;;;;;15.23;8.75;;;;;;;;;;5069272;28;20062;-74
2024/03/22 05:47:56;;;;;;;17.63;8.40;;;;;;;;;;5071023;28;20118;-73
2024/03/22 05:50:21;;;;;;;16.77;7.85;;;;;;;;;;5053116;28;20029;-71
2024/03/22 05:52:47;;;;;;;11.32;7.30;;;;;;;;;;5053794;28;20087;-73
2024/03/22 05:55:13;;;;;;;14.20;7.25;;;;;;;;;;5072098;28;20116;-71
2024/03/22 05:57:39;;;;;;;13.40;7.72;;;;;;;;;;5071839;28;20089;-72
2024/03/22 06:00:08;;;;;;;13.45;7.10;;;;;;;;;;5053863;28;20127;-72
2024/03/22 06:02:34;;;;;;;11.45;7.00;;;;;;;;;;5037514;28;20047;-73
2024/03/22 06:05:00;;;;;;;16.35;7.25;;;;;;;;;;5053788;28;20020;-72
2024/03/22 06:07:27;;;;;;;13.95;6.93;;;;;;;;;;5053938;28;20075;-72
2024/03/22 06:09:52;;;;;;;18.35;6.88;;;;;;;;;;5053768;28;20024;-72
2024/03/22 06:12:18;;;;;;;12.52;6.25;;;;;;;;;;5053899;28;20040;-72
2024/03/22 06:14:46;;;;;;;12.90;6.82;;;;;;;;;;5071370;28;20033;-72
2024/03/22 06:17:12;;;;;;;10.65;6.10;;;;;;;;;;5068336;28;20017;-73
2024/03/22 06:19:38;;;;;;;13.82;6.25;;;;;;;;;;5074902;28;20021;-73
2024/03/22 06:22:04;;;;;;;12.13;6.63;;;;;;;;;;5067159;28;20025;-73
2024/03/22 06:24:30;;;;;;;12.82;7.55;;;;;;;;;;5038262;28;20565;-73
2024/03/22 06:26:55;;;;;;;13.27;6.15;;;;;;;;;;5065063;28;20180;-75
2024/03/22 06:29:21;;;;;;;11.20;6.32;;;;;;;;;;5065259;28;20021;-73
2024/03/22 06:31:47;;;;;;;11.20;6.32;;;;;;;;;;5049199;28;20040;-72
2024/03/22 06:34:13;;;;;;;11.75;6.22;;;;;;;;;;5046219;28;20028;-73
2024/03/22 06:36:38;;;;;;;15.93;6.80;;;;;;;;;;5065766;28;20028;-72
2024/03/22 06:39:08;;;;;;;9.80;6.18;;;;;;;;;;5036948;28;20063;-71
2024/03/22 06:41:34;;;;;;;13.88;6.15;;;;;;;;;;5024464;28;20432;-73
2024/03/22 06:44:01;;;;;;;12.73;6.43;;;;;;;;;;5059546;28;20468;-72
2024/03/22 06:46:27;;;;;;;11.55;5.70;;;;;;;;;;5041860;28;20024;-75
2024/03/22 06:48:52;;;;;;;12.45;5.60;;;;;;;;;;5036383;28;20029;-73
2024/03/22 06:51:18;;;;;;;9.10;6.07;;;;;;;;;;5043587;28;20032;-73
2024/03/22 06:53:48;;;;;;;10.48;5.70;;;;;;;;;;5056445;28;20028;-71
2024/03/22 06:56:16;;;;;;;6.63;4.47;;;;;;;;;;5066077;28;20027;-72
2024/03/22 06:58:42;;;;;;;11.10;6.25;;;;;;;;;;5045921;28;20109;-74
2024/03/22 07:01:09;;;;;;;7.75;5.15;;;;;;;;;;5062812;28;20108;-73
2024/03/22 07:03:34;;;;;;;7.40;4.32;;;;;;;;;;5055143;28;20033;-74
2024/03/22 07:06:04;;;;;;;7.53;4.88;;;;;;;;;;5059542;28;20178;-73
2024/03/22 07:08:31;;;;;;;7.20;4.13;;;;;;;;;;5047660;28;20048;-73
2024/03/22 07:10:56;;;;;;;9.02;4.55;;;;;;;;;;5065911;28;20056;-71
2024/03/22 07:13:22;;;;;;;7.20;4.90;;;;;;;;;;5040920;28;20059;-72
2024/03/22 07:15:47;;;;;;;5.88;4.47;;;;;;;;;;5041607;28;20028;-73
2024/03/22 07:18:14;;;;;;;10.35;4.90;;;;;;;;;;5061773;28;20034;-73
2024/03/22 07:20:39;;;;;;;8.25;3.85;;;;;;;;;;5059999;28;20426;-70
2024/03/22 07:23:05;;;;;;;8.57;4.22;;;;;;;;;;5041403;28;20040;-72
2024/03/22 07:25:30;;;;;;;7.45;4.60;;;;;;;;;;5049903;28;20511;-71
2024/03/22 07:27:56;;;;;;;8.82;4.82;;;;;;;;;;5042515;28;20131;-73
2024/03/22 07:30:22;;;;;;;9.98;4.90;;;;;;;;;;5058701;28;20030;-72
2024/03/22 07:32:48;;;;;;;6.50;4.38;;;;;;;;;;5055120;28;20036;-73
2024/03/22 07:35:14;;;;;;;7.90;5.00;;;;;;;;;;5053898;28;20021;-72
2024/03/22 07:37:40;;;;;;;7.28;4.15;;;;;;;;;;5038417;28;20047;-74
2024/03/22 07:40:06;;;;;;;6.22;4.18;;;;;;;;;;5041248;28;20025;-73
2024/03/22 07:42:38;;;;;;;9.80;4.80;;;;;;;;;;5055503;28;20025;-72
2024/03/22 07:45:04;;;;;;;8.07;4.90;;;;;;;;;;5042208;28;20020;-73
2024/03/22 07:47:30;;;;;;;9.40;5.05;;;;;;;;;;5062008;28;20043;-72
2024/03/22 07:49:55;;;;;;;11.88;4.80;;;;;;;;;;5050577;28;20046;-72
2024/03/22 07:52:24;;;;;;;8.95;4.97;;;;;;;;;;5052083;28;20028;-74
2024/03/22 07:54:50;;;;;;;12.15;4.78;;;;;;;;;;5062800;28;20033;-75
2024/03/22 07:57:17;;;;;;;13.02;4.82;;;;;;;;;;5026018;28;20191;-71
2024/03/22 07:59:44;;;;;;;8.02;4.80;;;;;;;;;;5034305;28;20040;-73
2024/03/22 08:02:10;;;;;;;8.73;4.50;;;;;;;;;;5040204;28;20032;-73
2024/03/22 08:04:35;;;;;;;8.98;4.82;;;;;;;;;;5041572;28;20039;-72
2024/03/22 08:07:01;;;;;;;15.25;5.05;;;;;;;;;;5043910;28;20334;-72
2024/03/22 08:09:27;;;;;;;8.38;5.20;;;;;;;;;;5037696;28;20021;-74
2024/03/22 08:11:52;;;;;;;6.93;4.97;;;;;;;;;;5040159;28;20034;-72
2024/03/22 08:14:19;;;;;;;10.20;5.07;;;;;;;;;;5033807;28;20874;-74
2024/03/22 08:16:46;;;;;;;9.38;5.13;;;;;;;;;;5042612;28;20055;-73
2024/03/22 08:19:11;;;;;;;7.90;4.85;;;;;;;;;;5038079;28;20021;-73
2024/03/22 08:21:37;;;;;;;9.40;5.53;;;;;;;;;;5039956;28;20028;-73
2024/03/22 08:24:03;;;;;;;11.70;5.70;;;;;;;;;;5039468;28;20663;-72
2024/03/22 08:26:29;;;;;;;7.80;4.55;;;;;;;;;;5046744;28;20499;-74
2024/03/22 08:28:54;;;;;;;11.80;5.38;;;;;;;;;;5056724;28;20492;-73
2024/03/22 08:31:25;;;;;;;9.23;5.45;;;;;;;;;;5038626;28;20020;-72
2024/03/22 08:33:52;;;;;;;11.43;4.83;;;;;;;;;;5042012;28;20161;-75
2024/03/22 08:36:17;;;;;;;12.02;6.32;;;;;;;;;;5037529;28;20265;-72
2024/03/22 08:38:44;;;;;;;10.73;5.43;;;;;;;;;;5057579;28;20024;-74
2024/03/22 08:41:13;;;;;;;13.35;5.57;;;;;;;;;;5060010;28;20025;-73
2024/03/22 08:43:38;;;;;;;10.23;6.20;;;;;;;;;;5060771;28;20357;-73
2024/03/22 08:46:05;;;;;;;9.68;5.88;;;;;;;;;;5063173;28;20032;-75
2024/03/22 08:48:30;;;;;;;13.68;6.05;;;;;;;;;;5056863;28;20016;-73
2024/03/22 08:50:56;;;;;;;9.77;5.65;;;;;;;;;;5062627;28;20134;-74
2024/03/22 08:53:22;;;;;;;9.27;5.40;;;;;;;;;;5039728;28;20035;-72
2024/03/22 08:55:48;;;;;;;11.95;6.50;;;;;;;;;;5040809;28;20049;-73
2024/03/22 08:58:15;;;;;;;13.32;6.47;;;;;;;;;;5036998;28;20028;-73
2024/03/22 09:00:50;;;;;;;10.93;5.97;;;;;;;;;;5041577;28;20020;-77
2024/03/22 09:03:16;;;;;;;12.65;5.85;;;;;;;;;;5044500;28;20420;-73
2024/03/22 09:05:42;;;;;;;14.88;6.10;;;;;;;;;;5064932;28;20029;-76
2024/03/22 09:08:09;;;;;;;11.50;6.40;;;;;;;;;;5042634;28;20545;-74
2024/03/22 09:10:36;;;;;;;12.57;5.82;;;;;;;;;;5041312;28;20033;-73
2024/03/22 09:13:02;;;;;;;10.95;5.55;;;;;;;;;;5044250;28;20044;-74
2024/03/22 09:15:28;;;;;;;13.80;7.22;;;;;;;;;;5041618;28;20016;-74
2024/03/22 09:17:53;;;;;;;13.02;6.40;;;;;;;;;;5045512;28;20024;-74
2024/03/22 09:20:19;;;;;;;11.40;6.65;;;;;;;;;;5039632;28;20030;-74
2024/03/22 09:22:46;;;;;;;12.88;6.65;;;;;;;;;;5044155;28;20024;-74
2024/03/22 09:25:14;;;;;;;11.40;6.05;;;;;;;;;;5054752;28;20041;-72
2024/03/22 09:27:39;;;;;;;13.95;6.75;;;;;;;;;;5040639;28;20056;-74
2024/03/22 09:30:06;;;;;;;9.60;5.50;;;;;;;;;;5039141;28;20114;-73
2024/03/22 09:32:31;;;;;;;12.27;6.60;;;;;;;;;;5041043;28;20032;-74
2024/03/22 09:34:57;;;;;;;10.18;6.25;;;;;;;;;;5044272;28;20081;-74
2024/03/22 09:37:23;;;;;;;12.80;6.47;;;;;;;;;;5045892;28;20044;-73
2024/03/22 09:39:48;;;;;;;12.43;6.28;;;;;;;;;;5060183;28;20073;-73
2024/03/22 09:42:18;;;;;;;13.35;6.07;;;;;;;;;;5049104;28;20037;-73
2024/03/22 09:44:59;;;;;;;13.20;7.17;;;;;;;;;;5039063;28;20036;-72
2024/03/22 09:47:26;;;;;;;14.25;6.85;;;;;;;;;;5029656;28;20036;-74
2024/03/22 09:49:55;;;;;;;10.10;5.75;;;;;;;;;;5046809;28;20079;-75
2024/03/22 09:52:21;;;;;;;14.25;6.70;;;;;;;;;;5059168;28;20127;-75
2024/03/22 09:54:46;;;;;;;12.27;6.53;;;;;;;;;;5050552;28;20770;-72
2024/03/22 09:57:15;;;;;;;19.95;7.88;;;;;;;;;;5068599;28;20037;-73
2024/03/22 09:59:42;;;;;;;11.82;6.60;;;;;;;;;;5062343;28;20021;-74
2024/03/22 10:02:12;;;;;;;10.95;7.10;;;;;;;;;;5048480;28;20051;-73
2024/03/22 10:04:39;;;;;;;12.35;6.57;;;;;;;;;;5046567;28;20022;-74
2024/03/22 10:07:05;;;;;;;12.20;7.40;;;;;;;;;;5047941;28;20064;-76
2024/03/22 10:09:32;;;;;;;12.57;7.18;;;;;;;;;;5041066;28;20052;-75
2024/03/22 10:11:59;;;;;;;12.50;6.90;;;;;;;;;;5044463;28;20155;-73
2024/03/22 10:14:26;;;;;;;14.73;6.78;;;;;;;;;;5059612;28;20021;-75
2024/03/22 10:16:55;;;;;;;12.70;7.18;;;;;;;;;;5046609;28;20518;-74
2024/03/22 10:19:22;;;;;;;16.88;7.75;;;;;;;;;;5025848;28;20035;-74
2024/03/22 10:22:01;;;;;;;17.02;6.72;;;;;;;;;;5026359;28;20078;-76
2024/03/22 10:24:28;;;;;;;10.00;5.55;;;;;;;;;;5044037;28;20029;-75
2024/03/22 10:26:54;;;;;;;9.55;4.45;;;;;;;;;;5064908;28;20020;-76
2024/03/22 10:29:22;;;;;;;9.23;5.13;;;;;;;;;;5047390;28;20044;-75
2024/03/22 10:31:48;;;;;;;7.57;4.82;;;;;;;;;;5043678;28;20064;-76
2024/03/22 10:34:19;;;;;;;7.13;4.57;;;;;;;;;;5063845;28;20025;-70
2024/03/22 10:36:52;;;;;;;8.35;4.65;;;;;;;;;;5041805;28;20040;-75
2024/03/22 10:39:21;;;;;;;6.22;3.80;;;;;;;;;;5052282;28;20121;-77
2024/03/22 10:41:47;;;;;;;7.72;4.57;;;;;;;;;;5049587;28;20020;-78
2024/03/22 10:44:14;;;;;;;9.60;4.13;;;;;;;;;;5061975;28;20029;-75
2024/03/22 10:46:47;;;;;;;7.63;4.50;;;;;;;;;;5057625;28;20025;-72
2024/03/22 10:49:18;;;;;;;9.20;4.22;;;;;;;;;;5078711;28;20029;-72
2024/03/22 10:51:49;;;;;;;9.05;4.70;;;;;;;;;;5081712;28;20052;-74
2024/03/22 10:54:20;;;;;;;10.18;5.13;;;;;;;;;;5055734;28;20024;-76
2024/03/22 10:56:47;;;;;;;9.43;5.05;;;;;;;;;;5045437;28;20016;-76
2024/03/22 10:59:22;;;;;;;12.75;5.40;;;;;;;;;;5051562;28;20056;-74
2024/03/22 11:01:49;;;;;;;10.98;5.88;;;;;;;;;;5048892;28;20025;-76
2024/03/22 11:04:17;;;;;;;7.75;4.88;;;;;;;;;;5045886;28;20024;-77
2024/03/22 11:06:48;;;;;;;9.85;5.47;;;;;;;;;;5067011;28;20088;-74
2024/03/22 11:09:21;;;;;;;11.35;5.85;;;;;;;;;;5068268;28;20101;-75
2024/03/22 11:11:47;;;;;;;9.38;5.82;;;;;;;;;;5048759;28;20024;-74
2024/03/22 11:14:13;;;;;;;10.55;5.32;;;;;;;;;;5058436;28;20094;-75
2024/03/22 11:16:42;;;;;;;10.07;5.32;;;;;;;;;;5061074;28;20108;-75
2024/03/22 11:19:08;;;;;;;11.90;5.88;;;;;;;;;;5053435;28;20049;-76
2024/03/22 11:21:34;;;;;;;10.35;5.85;;;;;;;;;;5048621;28;20024;-74
2024/03/22 11:24:02;;;;;;;10.68;4.60;;;;;;;;;;5049505;28;20032;-73
2024/03/22 11:26:28;;;;;;;10.45;5.85;;;;;;;;;;5058957;28;20035;-74
2024/03/22 11:28:54;;;;;;;9.93;5.45;;;;;;;;;;5046583;28;20098;-75
2024/03/22 11:31:24;;;;;;;10.18;5.47;;;;;;;;;;5041337;28;20032;-77
2024/03/22 11:33:52;;;;;;;10.50;5.95;;;;;;;;;;5060771;28;20032;-75
2024/03/22 11:36:17;;;;;;;10.27;5.75;;;;;;;;;;5041688;28;20040;-77
2024/03/22 11:38:44;;;;;;;9.65;5.45;;;;;;;;;;5043955;28;20024;-74
2024/03/22 11:41:12;;;;;;;10.10;6.32;;;;;;;;;;5044575;28;20071;-76
2024/03/22 11:43:39;;;;;;;13.73;6.60;;;;;;;;;;5057456;28;20378;-72
2024/03/22 11:46:04;;;;;;;10.68;5.68;;;;;;;;;;5056830;28;20059;-73
2024/03/22 11:48:30;;;;;;;11.30;5.70;;;;;;;;;;5043554;28;20024;-75
2024/03/22 11:51:01;;;;;;;12.10;5.47;;;;;;;;;;5043207;28;20044;-77
2024/03/22 11:53:28;;;;;;;12.32;6.13;;;;;;;;;;5060243;28;20024;-72
2024/03/22 11:55:54;;;;;;;12.35;6.50;;;;;;;;;;5023633;28;20044;-71
2024/03/22 11:58:20;;;;;;;11.38;6.10;;;;;;;;;;5062159;28;20048;-75
2024/03/22 12:00:45;;;;;;;13.07;5.85;;;;;;;;;;5046294;28;20107;-74
2024/03/22 12:03:11;;;;;;;12.20;5.80;;;;;;;;;;5070707;28;20037;-73
2024/03/22 12:05:37;;;;;;;14.35;6.80;;;;;;;;;;5050483;28;20029;-75
2024/03/22 12:08:04;;;;;;;11.60;6.13;;;;;;;;;;5037311;28;20025;-73
2024/03/22 12:10:29;;;;;;;12.63;6.13;;;;;;;;;;5035730;28;20098;-75
2024/03/22 12:12:55;;;;;;;11.43;6.07;;;;;;;;;;5040607;28;20029;-73
2024/03/22 12:15:21;;;;;;;12.02;6.25;;;;;;;;;;5039160;28;20036;-75
2024/03/22 12:17:47;;;;;;;16.13;6.93;;;;;;;;;;5045740;28;20024;-76
2024/03/22 12:20:14;;;;;;;15.00;7.03;;;;;;;;;;5059343;28;20103;-72
2024/03/22 12:22:40;;;;;;;12.23;6.93;;;;;;;;;;5047744;28;20035;-76
2024/03/22 12:25:06;;;;;;;14.20;7.57;;;;;;;;;;5025969;28;20041;-72
2024/03/22 12:27:32;;;;;;;11.88;6.90;;;;;;;;;;5060310;28;20459;-74
2024/03/22 12:29:58;;;;;;;12.77;7.53;;;;;;;;;;5040713;28;20508;-74
2024/03/22 12:32:25;;;;;;;18.77;8.45;;;;;;;;;;5035558;28;20048;-75
2024/03/22 12:34:50;;;;;;;18.13;7.82;;;;;;;;;;5059435;28;20388;-74
2024/03/22 12:37:16;;;;;;;11.80;6.53;;;;;;;;;;5042531;28;20069;-73
2024/03/22 12:39:41;;;;;;;12.80;7.03;;;;;;;;;;5058598;28;20052;-74
2024/03/22 12:42:07;;;;;;;16.80;7.85;;;;;;;;;;5043985;28;20025;-71
2024/03/22 12:44:34;;;;;;;14.63;7.82;;;;;;;;;;5026574;28;20199;-74
2024/03/22 12:47:00;;;;;;;13.10;7.95;;;;;;;;;;5038955;28;20050;-74
2024/03/22 12:49:26;;;;;;;16.17;8.02;;;;;;;;;;5041503;28;20035;-74
2024/03/22 12:51:52;;;;;;;13.73;7.15;;;;;;;;;;5046944;28;20028;-75
2024/03/22 12:54:18;;;;;;;13.73;7.50;;;;;;;;;;5049936;28;20047;-74
2024/03/22 12:56:49;;;;;;;14.27;7.78;;;;;;;;;;5042817;28;20422;-74
2024/03/22 12:59:15;;;;;;;14.52;7.90;;;;;;;;;;5060278;28;20016;-75
2024/03/22 13:01:41;;;;;;;14.60;7.47;;;;;;;;;;5037877;28;20437;-75
2024/03/22 13:04:06;;;;;;;16.52;8.30;;;;;;;;;;5042045;28;20063;-76
2024/03/22 13:06:34;;;;;;;29.50;9.98;;;;;;;;;;5054842;28;20071;-74
2024/03/22 13:09:09;;;;;;;14.48;7.75;;;;;;;;;;5061770;28;20078;-75
2024/03/22 13:11:35;;;;;;;16.98;8.20;;;;;;;;;;5043456;28;20028;-76
2024/03/22 13:14:00;;;;;;;17.65;7.65;;;;;;;;;;5042131;28;20043;-76
2024/03/22 13:16:26;;;;;;;14.48;8.40;;;;;;;;;;5059366;28;20045;-72
2024/03/22 13:18:52;;;;;;;16.70;7.95;;;;;;;;;;5042129;28;20668;-74
2024/03/22 13:21:17;;;;;;;15.70;8.23;;;;;;;;;;5041048;28;20029;-75
2024/03/22 13:23:43;;;;;;;17.02;7.82;;;;;;;;;;5043773;28;20047;-73
2024/03/22 13:26:09;;;;;;;18.30;8.20;;;;;;;;;;5038080;28;20139;-70
2024/03/22 13:28:34;;;;;;;15.18;7.90;;;;;;;;;;5055043;28;20044;-76
2024/03/22 13:31:06;;;;;;;16.88;7.93;;;;;;;;;;5039028;28;20073;-77
2024/03/22 13:33:33;;;;;;;13.50;7.40;;;;;;;;;;5062721;28;20056;-74
2024/03/22 13:35:59;;;;;;;15.70;7.10;;;;;;;;;;5054225;28;20025;-75
2024/03/22 13:38:24;;;;;;;13.10;6.82;;;;;;;;;;5049771;28;20029;-72
2024/03/22 13:40:58;;;;;;;17.02;7.90;;;;;;;;;;5061089;28;20024;-76
2024/03/22 13:43:28;;;;;;;13.48;6.85;;;;;;;;;;5057887;28;20035;-76
2024/03/22 13:45:54;;;;;;;12.35;6.25;;;;;;;;;;5035140;28;20036;-74
2024/03/22 13:48:24;;;;;;;12.98;7.43;;;;;;;;;;5022467;28;20047;-75
2024/03/22 13:50:57;;;;;;;15.02;6.82;;;;;;;;;;5036837;28;20479;-76
2024/03/22 13:53:23;;;;;;;13.63;7.00;;;;;;;;;;5038542;28;20035;-74
2024/03/22 13:55:49;;;;;;;16.25;7.97;;;;;;;;;;5040349;28;20131;-73
2024/03/22 13:58:15;;;;;;;12.02;6.43;;;;;;;;;;5038118;28;20089;-74
2024/03/22 14:00:41;;;;;;;12.73;6.88;;;;;;;;;;5038185;28;20036;-77
2024/03/22 14:03:06;;;;;;;13.73;7.25;;;;;;;;;;5058637;28;20476;-74
2024/03/22 14:05:32;;;;;;;11.40;6.47;;;;;;;;;;5038680;28;20033;-77
2024/03/22 14:07:59;;;;;;;11.82;6.32;;;;;;;;;;5044731;28;20025;-73
2024/03/22 14:10:26;;;;;;;14.25;6.60;;;;;;;;;;5041122;28;20020;-76
2024/03/22 14:12:52;;;;;;;10.57;6.43;;;;;;;;;;5023944;28;20037;-73
2024/03/22 14:15:18;;;;;;;9.65;5.78;;;;;;;;;;5039206;28;20052;-72
2024/03/22 14:17:43;;;;;;;12.77;5.20;;;;;;;;;;5060146;28;20450;-73
2024/03/22 14:20:12;;;;;;;13.63;5.63;;;;;;;;;;5059617;28;20123;-71
2024/03/22 14:22:40;;;;;;;8.60;4.57;;;;;;;;;;5058353;28;20032;-75
2024/03/22 14:25:09;;;;;;;8.68;5.03;;;;;;;;;;5062073;28;20391;-77